Аэропорт: Платов. Ростов-на-Дону

ICAO: URRP

METAR:
2020-10-24 06:30:00
URRP 240630Z 25006MPS 9999 FEW/// SCT041 17/13 Q1016 R23/CLRD70 NOSIG RMK QFE754/1006
METAR:
2020-10-24 04:55:00
TAF URRP 240455Z 2406/2506 24006G13MPS 9999 SCT016 SCT020CB TEMPO 2406/2408 6000 SCT003 TEMPO 2408/2415 26008G13MPS TEMPO 2418/2506 6000 SCT004